Time;durP1;ratioP1;P1;durP2;ratioP2;P2;SDS_P1;SDS_P2;PMS_P1;PMS_P2;Temp;Humidity;BMP_temperature;BMP_pressure;BME280_temperature;BME280_humidity;BME280_pressure;Samples;Min_cycle;Max_cycle;Signal;HPM_P1;HPM_P2
2021/11/19 00:00:23;0.00;0.00;0.62;0.00;0.00;0.62;9.57;7.00;;;22.90;29.30;;;;;;2234296;62;20368;-62
2021/11/19 00:03:08;0.00;0.00;0.62;0.00;0.00;0.62;9.03;5.90;;;22.90;29.30;;;;;;2233797;62;20368;-62
2021/11/19 00:05:53;0.00;0.00;0.62;0.00;0.00;0.62;8.97;7.00;;;22.80;29.40;;;;;;2233318;62;20407;-60
2021/11/19 00:08:39;0.00;0.00;0.62;0.00;0.00;0.62;9.30;6.90;;;22.70;29.40;;;;;;2233934;62;20449;-61
2021/11/19 00:11:28;0.00;0.00;0.62;0.00;0.00;0.62;11.00;7.60;;;22.70;29.50;;;;;;2234699;62;20361;-63
2021/11/19 00:14:15;0.00;0.00;0.62;0.00;0.00;0.62;9.80;6.67;;;22.60;29.60;;;;;;2234137;62;20360;-62
2021/11/19 00:17:08;0.00;0.00;0.62;0.00;0.00;0.62;8.40;5.70;;;22.60;29.60;;;;;;2233552;62;20391;-63
2021/11/19 00:19:56;0.00;0.00;0.62;0.00;0.00;0.62;8.53;5.40;;;22.60;29.70;;;;;;2234367;62;20400;-60
2021/11/19 00:22:41;0.00;0.00;0.62;0.00;0.00;0.62;7.90;6.07;;;22.60;29.80;;;;;;2233879;62;20757;-60
2021/11/19 00:25:27;0.00;0.00;0.62;0.00;0.00;0.62;7.03;6.30;;;22.50;29.80;;;;;;2233738;62;20435;-60
2021/11/19 00:28:12;0.00;0.00;0.62;0.00;0.00;0.62;8.63;6.20;;;22.50;29.90;;;;;;2233581;62;20600;-62
2021/11/19 00:30:59;0.00;0.00;0.62;0.00;0.00;0.62;10.73;7.07;;;22.50;29.90;;;;;;2233413;62;20528;-61
2021/11/19 00:33:45;0.00;0.00;0.62;0.00;0.00;0.62;7.77;6.33;;;22.40;30.00;;;;;;2234180;62;20585;-60
2021/11/19 00:36:32;0.00;0.00;0.62;0.00;0.00;0.62;11.70;7.30;;;22.40;30.00;;;;;;2233223;62;20408;-62
2021/11/19 00:39:18;0.00;0.00;0.62;0.00;0.00;0.62;6.90;6.20;;;22.30;30.00;;;;;;2235552;62;20433;-61
2021/11/19 00:42:05;0.00;0.00;0.62;0.00;0.00;0.62;8.13;6.87;;;22.30;30.10;;;;;;2236123;62;20375;-61
2021/11/19 00:44:50;0.00;0.00;0.62;0.00;0.00;0.62;9.70;7.40;;;22.30;30.20;;;;;;2234140;62;20436;-60
2021/11/19 00:47:36;0.00;0.00;0.62;0.00;0.00;0.62;8.80;7.20;;;22.30;30.30;;;;;;2233511;62;20392;-62
2021/11/19 00:50:24;0.00;0.00;0.62;0.00;0.00;0.62;7.60;6.07;;;22.20;30.30;;;;;;2233375;62;20443;-62
2021/11/19 00:53:09;0.00;0.00;0.62;0.00;0.00;0.62;9.20;6.70;;;22.20;30.40;;;;;;2233317;62;20397;-61
2021/11/19 00:55:36;0.00;0.00;0.62;0.00;0.00;0.62;8.60;6.30;;;22.20;30.40;;;;;;2233901;62;20361;-62
2021/11/19 00:58:04;0.00;0.00;0.62;0.00;0.00;0.62;9.87;7.53;;;22.20;30.50;;;;;;2233252;62;20373;-60
2021/11/19 01:00:55;0.00;0.00;0.62;0.00;0.00;0.62;11.80;8.20;;;22.10;30.50;;;;;;2235530;62;20363;-61
2021/11/19 01:03:41;0.00;0.00;0.62;0.00;0.00;0.62;11.77;8.30;;;22.10;30.60;;;;;;2236558;62;20356;-61
2021/11/19 01:06:25;0.00;0.00;0.62;0.00;0.00;0.62;10.50;8.37;;;22.10;30.70;;;;;;2235503;62;20469;-61
2021/11/19 01:09:14;0.00;0.00;0.62;0.00;0.00;0.62;12.10;8.37;;;22.00;30.70;;;;;;2235544;62;20792;-62
2021/11/19 01:12:04;0.00;0.00;0.62;0.00;0.00;0.62;10.40;7.97;;;22.00;30.80;;;;;;2233332;62;20360;-61
2021/11/19 01:14:53;0.00;0.00;0.62;0.00;0.00;0.62;10.90;8.67;;;22.00;31.00;;;;;;2235944;62;20372;-62
2021/11/19 01:17:43;0.00;0.00;0.62;0.00;0.00;0.62;11.17;7.70;;;22.00;31.00;;;;;;2235877;62;20585;-62
2021/11/19 01:20:35;0.00;0.00;0.62;0.00;0.00;0.62;11.13;8.73;;;21.90;31.00;;;;;;2235398;62;20417;-61
2021/11/19 01:23:24;0.00;0.00;0.62;0.00;0.00;0.62;11.93;9.00;;;21.90;31.10;;;;;;2235513;62;20752;-61
2021/11/19 01:26:13;0.00;0.00;0.62;0.00;0.00;0.62;9.73;7.13;;;21.90;31.30;;;;;;2233948;62;20401;-62
2021/11/19 01:29:03;0.00;0.00;0.62;0.00;0.00;0.62;11.00;8.60;;;21.90;31.30;;;;;;2233101;62;20391;-61
2021/11/19 01:31:53;0.00;0.00;0.62;0.00;0.00;0.62;8.10;6.93;;;21.80;31.40;;;;;;2235976;62;20616;-61
2021/11/19 01:34:48;0.00;0.00;0.62;0.00;0.00;0.62;9.40;8.40;;;21.80;31.40;;;;;;2235509;62;20407;-62
2021/11/19 01:38:13;0.00;0.00;0.62;0.00;0.00;0.62;12.13;7.47;;;21.80;31.50;;;;;;2233156;62;20429;-61
2021/11/19 01:41:11;0.00;0.00;0.62;0.00;0.00;0.62;9.10;7.13;;;21.70;31.50;;;;;;2236380;62;20372;-61
2021/11/19 01:43:57;0.00;0.00;0.62;0.00;0.00;0.62;8.27;7.40;;;21.80;31.70;;;;;;2236164;62;20360;-61
2021/11/19 01:46:45;0.00;0.00;0.62;0.00;0.00;0.62;8.33;7.43;;;21.70;32.40;;;;;;2233475;62;20717;-61
2021/11/19 01:49:32;0.00;0.00;0.62;0.00;0.00;0.62;7.13;6.40;;;21.70;31.80;;;;;;2232643;62;20424;-61
2021/11/19 01:52:38;0.00;0.00;0.62;0.00;0.00;0.62;8.47;6.80;;;21.70;31.80;;;;;;2235784;62;20373;-61
2021/11/19 01:55:32;0.00;0.00;0.62;0.00;0.00;0.62;7.60;6.83;;;21.70;31.80;;;;;;2236865;62;20376;-61
2021/11/19 01:58:20;0.00;0.00;0.62;0.00;0.00;0.62;8.83;7.40;;;21.70;31.90;;;;;;2236166;62;20384;-61
2021/11/19 02:01:10;0.00;0.00;0.62;0.00;0.00;0.62;10.80;7.10;;;21.70;31.90;;;;;;2236301;62;20386;-61
2021/11/19 02:03:59;0.00;0.00;0.62;0.00;0.00;0.62;12.60;6.80;;;21.70;32.00;;;;;;2236020;62;20629;-61
2021/11/19 02:07:00;0.00;0.00;0.62;0.00;0.00;0.62;7.63;6.10;;;21.60;31.90;;;;;;2236344;62;20597;-61
2021/11/19 02:10:25;0.00;0.00;0.62;0.00;0.00;0.62;8.20;6.10;;;21.60;31.90;;;;;;2236893;62;20416;-61
2021/11/19 02:13:19;0.00;0.00;0.62;0.00;0.00;0.62;8.07;6.40;;;21.60;32.00;;;;;;2236190;62;20397;-61
2021/11/19 02:16:08;0.00;0.00;0.62;0.00;0.00;0.62;8.77;6.70;;;21.60;32.10;;;;;;2236308;62;20744;-61
2021/11/19 02:18:59;0.00;0.00;0.62;0.00;0.00;0.62;6.77;6.00;;;21.60;32.20;;;;;;2235943;62;20397;-62
2021/11/19 02:21:49;0.00;0.00;0.62;0.00;0.00;0.62;6.40;5.50;;;21.60;32.20;;;;;;2234004;62;20403;-61
2021/11/19 02:24:39;0.00;0.00;0.62;0.00;0.00;0.62;6.07;5.13;;;21.60;32.20;;;;;;2236924;62;20356;-60
2021/11/19 02:27:34;0.00;0.00;0.62;0.00;0.00;0.62;7.13;5.10;;;21.60;32.20;;;;;;2235792;62;20391;-62
2021/11/19 02:30:24;0.00;0.00;0.62;0.00;0.00;0.62;8.40;6.00;;;21.60;32.30;;;;;;2236258;62;20364;-61
2021/11/19 02:33:14;0.00;0.00;0.62;0.00;0.00;0.62;7.57;5.93;;;21.50;32.20;;;;;;2236269;62;20404;-61
2021/11/19 02:36:05;0.00;0.00;0.62;0.00;0.00;0.62;7.50;5.50;;;21.50;32.30;;;;;;2236465;62;20736;-61
2021/11/19 02:38:57;0.00;0.00;0.62;0.00;0.00;0.62;7.80;5.30;;;21.50;32.30;;;;;;2236432;62;20817;-62
2021/11/19 02:41:46;0.00;0.00;0.62;0.00;0.00;0.62;7.40;5.43;;;21.50;32.30;;;;;;2235857;62;20406;-60
2021/11/19 02:44:34;0.00;0.00;0.62;0.00;0.00;0.62;6.87;5.40;;;21.50;32.40;;;;;;2236149;62;20364;-61
2021/11/19 02:47:27;0.00;0.00;0.62;0.00;0.00;0.62;7.87;5.47;;;21.50;32.40;;;;;;2236540;62;20416;-61
2021/11/19 02:50:17;0.00;0.00;0.62;0.00;0.00;0.62;7.90;5.97;;;21.50;32.40;;;;;;2234046;62;20368;-61
2021/11/19 02:53:02;0.00;0.00;0.62;0.00;0.00;0.62;8.10;6.73;;;21.50;32.60;;;;;;2236077;62;20768;-61
2021/11/19 02:55:50;0.00;0.00;0.62;0.00;0.00;0.62;6.00;5.40;;;21.40;32.60;;;;;;2235803;62;20364;-62
2021/11/19 02:58:44;0.00;0.00;0.62;0.00;0.00;0.62;7.67;6.57;;;21.50;32.80;;;;;;2236282;62;20433;-61
2021/11/19 03:01:33;0.00;0.00;0.62;0.00;0.00;0.62;9.60;6.50;;;21.40;32.80;;;;;;2236587;62;20364;-63
2021/11/19 03:04:25;0.00;0.00;0.62;0.00;0.00;0.62;7.00;5.57;;;21.40;32.80;;;;;;2235863;62;20412;-60
2021/11/19 03:07:11;0.00;0.00;0.62;0.00;0.00;0.62;6.80;5.50;;;21.30;32.70;;;;;;2235358;62;20388;-62
2021/11/19 03:10:03;0.00;0.00;0.62;0.00;0.00;0.62;6.50;5.67;;;21.30;32.80;;;;;;2236727;62;20519;-60
2021/11/19 03:12:49;0.00;0.00;0.62;0.00;0.00;0.62;6.83;6.17;;;21.30;32.90;;;;;;2236865;62;20368;-61
2021/11/19 03:15:39;0.00;0.00;0.62;0.00;0.00;0.62;7.40;5.53;;;21.30;32.90;;;;;;2236169;62;20744;-61
2021/11/19 03:18:27;0.00;0.00;0.62;0.00;0.00;0.62;5.90;4.70;;;21.30;32.90;;;;;;2235879;62;20433;-61
2021/11/19 03:21:17;0.00;0.00;0.62;0.00;0.00;0.62;5.47;4.97;;;21.30;33.60;;;;;;2233625;62;20371;-63
2021/11/19 03:24:02;0.00;0.00;0.62;0.00;0.00;0.62;5.97;5.10;;;21.30;33.00;;;;;;2236799;62;20691;-62
2021/11/19 03:26:49;0.00;0.00;0.62;0.00;0.00;0.62;7.00;5.13;;;21.20;32.90;;;;;;2235985;62;20389;-63
2021/11/19 03:29:36;0.00;0.00;0.62;0.00;0.00;0.62;6.53;5.50;;;21.30;33.10;;;;;;2235922;62;20437;-61
2021/11/19 03:32:30;0.00;0.00;0.62;0.00;0.00;0.62;8.40;6.37;;;21.20;33.00;;;;;;2236388;62;20372;-61
2021/11/19 03:35:17;0.00;0.00;0.62;0.00;0.00;0.62;11.63;6.27;;;21.20;33.10;;;;;;2236273;62;20434;-61
2021/11/19 03:38:03;0.00;0.00;0.62;0.00;0.00;0.62;5.60;4.93;;;21.20;33.10;;;;;;2236129;62;20438;-61
2021/11/19 03:40:52;0.00;0.00;0.62;0.00;0.00;0.62;6.00;5.40;;;21.30;33.20;;;;;;2235836;62;20372;-61
2021/11/19 03:43:40;0.00;0.00;0.62;0.00;0.00;0.62;6.87;5.57;;;21.20;33.20;;;;;;2235718;62;20407;-62
2021/11/19 03:46:29;0.00;0.00;0.62;0.00;0.00;0.62;4.97;4.47;;;21.20;33.20;;;;;;2236374;62;20364;-62
2021/11/19 03:49:16;0.00;0.00;0.62;0.00;0.00;0.62;8.27;5.87;;;21.20;33.20;;;;;;2233541;62;20389;-62
2021/11/19 03:52:05;0.00;0.00;0.62;0.00;0.00;0.62;6.77;5.60;;;21.20;33.30;;;;;;2236032;62;20442;-61
2021/11/19 03:54:55;0.00;0.00;0.62;0.00;0.00;0.62;6.10;5.40;;;21.20;33.40;;;;;;2235781;62;20668;-61
2021/11/19 03:57:40;0.00;0.00;0.62;0.00;0.00;0.62;8.43;5.50;;;21.20;33.40;;;;;;2235904;62;20400;-62
2021/11/19 04:00:29;0.00;0.00;0.62;0.00;0.00;0.62;7.50;6.17;;;21.20;33.50;;;;;;2236284;62;20360;-61
2021/11/19 04:03:16;0.00;0.00;0.62;0.00;0.00;0.62;7.00;5.60;;;21.20;33.60;;;;;;2235636;62;20368;-61
2021/11/19 04:06:03;0.00;0.00;0.62;0.00;0.00;0.62;6.33;5.60;;;21.20;33.60;;;;;;2235630;62;20364;-61
2021/11/19 04:08:49;0.00;0.00;0.62;0.00;0.00;0.62;5.60;4.73;;;21.20;33.70;;;;;;2236571;62;20609;-60
2021/11/19 04:11:37;0.00;0.00;0.62;0.00;0.00;0.62;6.87;5.67;;;21.20;33.60;;;;;;2235698;62;20360;-61
2021/11/19 04:14:22;0.00;0.00;0.62;0.00;0.00;0.62;5.43;4.93;;;21.20;33.80;;;;;;2235985;62;20376;-61
2021/11/19 04:17:07;0.00;0.00;0.62;0.00;0.00;0.62;6.63;5.00;;;21.20;33.80;;;;;;2235477;62;20432;-61
2021/11/19 04:19:51;0.00;0.00;0.62;0.00;0.00;0.62;5.60;5.03;;;21.20;33.70;;;;;;2233800;62;20660;-61
2021/11/19 04:22:36;0.00;0.00;0.62;0.00;0.00;0.62;4.83;3.90;;;21.20;33.90;;;;;;2236253;62;20441;-61
2021/11/19 04:25:24;0.00;0.00;0.62;0.00;0.00;0.62;6.30;5.50;;;21.10;33.70;;;;;;2235517;62;20368;-61
2021/11/19 04:28:11;0.00;0.00;0.62;0.00;0.00;0.62;7.87;6.33;;;21.20;33.90;;;;;;2235647;62;20477;-61
2021/11/19 04:31:09;0.00;0.00;0.62;0.00;0.00;0.62;10.43;6.43;;;21.10;33.90;;;;;;2236403;62;20368;-61
2021/11/19 04:33:55;0.00;0.00;0.62;0.00;0.00;0.62;6.43;5.83;;;21.10;33.90;;;;;;2235969;62;20372;-61
2021/11/19 04:36:41;0.00;0.00;0.62;0.00;0.00;0.62;7.37;5.60;;;21.10;33.90;;;;;;2235700;62;20416;-61
2021/11/19 04:39:26;0.00;0.00;0.62;0.00;0.00;0.62;7.80;5.80;;;21.10;34.00;;;;;;2235543;62;20364;-61
2021/11/19 04:42:10;0.00;0.00;0.62;0.00;0.00;0.62;8.83;6.50;;;21.10;34.00;;;;;;2236078;62;20389;-61
2021/11/19 04:44:56;0.00;0.00;0.62;0.00;0.00;0.62;8.03;6.90;;;21.10;34.10;;;;;;2234022;62;20440;-60
2021/11/19 04:47:44;0.00;0.00;0.62;0.00;0.00;0.62;11.20;7.23;;;21.10;34.10;;;;;;2235420;62;20498;-62
2021/11/19 04:50:32;0.00;0.00;0.62;0.00;0.00;0.62;9.93;6.70;;;21.10;34.20;;;;;;2235769;62;20372;-62
2021/11/19 04:53:21;0.00;0.00;0.62;0.00;0.00;0.62;8.67;7.40;;;21.10;34.20;;;;;;2236306;62;20363;-62
2021/11/19 04:56:09;0.00;0.00;0.62;0.00;0.00;0.62;8.53;7.70;;;21.10;34.30;;;;;;2233214;62;20365;-62
2021/11/19 04:58:54;0.00;0.00;0.62;0.00;0.00;0.62;9.13;7.90;;;21.10;34.30;;;;;;2235743;62;20662;-61
2021/11/19 05:01:45;0.00;0.00;0.62;0.00;0.00;0.62;9.50;7.50;;;21.10;34.30;;;;;;2235478;62;20511;-62
2021/11/19 05:04:38;0.00;0.00;0.62;0.00;0.00;0.62;8.43;7.03;;;21.10;34.40;;;;;;2236045;62;20399;-62
2021/11/19 05:07:22;0.00;0.00;0.62;0.00;0.00;0.62;11.77;8.20;;;21.10;34.50;;;;;;2233750;62;20663;-62
2021/11/19 05:10:11;0.00;0.00;0.62;0.00;0.00;0.62;9.13;7.77;;;21.10;34.50;;;;;;2235587;62;20636;-62
2021/11/19 05:12:59;0.00;0.00;0.62;0.00;0.00;0.62;9.03;8.03;;;21.10;34.50;;;;;;2235704;62;20716;-62
2021/11/19 05:15:47;0.00;0.00;0.62;0.00;0.00;0.62;10.90;8.80;;;21.00;34.50;;;;;;2236263;62;20642;-62
2021/11/19 05:18:34;0.00;0.00;0.62;0.00;0.00;0.62;9.30;7.10;;;21.10;34.60;;;;;;2236267;62;20431;-61
2021/11/19 05:21:20;0.00;0.00;0.62;0.00;0.00;0.62;9.00;7.30;;;21.10;34.60;;;;;;2235979;62;20494;-60
2021/11/19 05:24:08;0.00;0.00;0.62;0.00;0.00;0.62;7.83;7.10;;;21.00;34.40;;;;;;2235581;62;20576;-59
2021/11/19 05:26:54;0.00;0.00;0.62;0.00;0.00;0.62;8.57;7.77;;;21.00;34.50;;;;;;2235595;62;20460;-62
2021/11/19 05:29:39;0.00;0.00;0.62;0.00;0.00;0.62;8.10;7.10;;;21.00;34.50;;;;;;2236294;62;20759;-62
2021/11/19 05:32:25;0.00;0.00;0.62;0.00;0.00;0.62;10.23;8.93;;;21.00;34.50;;;;;;2235555;62;20384;-62
2021/11/19 05:35:13;0.00;0.00;0.62;0.00;0.00;0.62;11.13;8.57;;;21.10;34.70;;;;;;2235627;62;20364;-61
2021/11/19 05:37:58;0.00;0.00;0.62;0.00;0.00;0.62;12.10;9.70;;;21.10;34.70;;;;;;2236269;62;20490;-60
2021/11/19 05:40:44;0.00;0.00;0.62;0.00;0.00;0.62;11.53;8.30;;;21.00;34.60;;;;;;2236197;62;20364;-61
2021/11/19 05:43:29;0.00;0.00;0.62;0.00;0.00;0.62;11.63;9.33;;;21.00;34.60;;;;;;2235917;62;20410;-62
2021/11/19 05:46:25;0.00;0.00;0.62;0.00;0.00;0.62;8.20;7.20;;;21.10;34.80;;;;;;2235399;62;20368;-62
2021/11/19 05:49:16;0.00;0.00;0.62;0.00;0.00;0.62;10.57;8.40;;;21.00;34.70;;;;;;2235513;62;20468;-62
2021/11/19 05:52:06;0.00;0.00;0.62;0.00;0.00;0.62;15.00;11.50;;;21.00;34.70;;;;;;2236368;62;20376;-61
2021/11/19 05:54:50;0.00;0.00;0.62;0.00;0.00;0.62;13.20;10.30;;;21.00;34.80;;;;;;2232800;62;20368;-61
2021/11/19 05:57:36;0.00;0.00;0.62;0.00;0.00;0.62;11.87;8.87;;;21.00;34.90;;;;;;2229972;62;20380;-64
2021/11/19 06:00:25;0.00;0.00;0.62;0.00;0.00;0.62;11.53;9.43;;;21.00;34.90;;;;;;2233695;62;20640;-63
2021/11/19 06:03:18;0.00;0.00;0.62;0.00;0.00;0.62;11.50;10.30;;;21.00;34.80;;;;;;2235873;62;20372;-64
2021/11/19 06:06:23;0.00;0.00;0.62;0.00;0.00;0.62;12.40;8.77;;;21.00;34.90;;;;;;2233840;62;20424;-63
2021/11/19 06:09:29;0.00;0.00;0.62;0.00;0.00;0.62;10.63;9.53;;;21.00;35.60;;;;;;2233113;62;20439;-66
2021/11/19 06:12:19;0.00;0.00;0.62;0.00;0.00;0.62;10.87;8.43;;;21.00;35.00;;;;;;2233232;62;20486;-65
2021/11/19 06:15:11;0.00;0.00;0.62;0.00;0.00;0.62;9.90;8.90;;;21.10;35.10;;;;;;2233926;62;20368;-64
2021/11/19 06:18:06;0.00;0.00;0.62;0.00;0.00;0.62;11.27;9.83;;;21.00;35.10;;;;;;2235953;62;20380;-62
2021/11/19 06:20:56;0.00;0.00;0.62;0.00;0.00;0.62;12.60;9.43;;;21.10;35.20;;;;;;2233549;62;20387;-63
2021/11/19 06:23:44;0.00;0.00;0.62;0.00;0.00;0.62;9.17;7.53;;;21.10;35.20;;;;;;2235336;62;20409;-63
2021/11/19 06:26:31;0.00;0.00;0.62;0.00;0.00;0.62;9.47;8.57;;;21.10;35.20;;;;;;2233023;62;20627;-63
2021/11/19 06:29:17;0.00;0.00;0.62;0.00;0.00;0.62;12.37;9.40;;;21.00;35.10;;;;;;2237913;62;20403;-64
2021/11/19 06:32:04;0.00;0.00;0.62;0.00;0.00;0.62;12.53;8.93;;;21.10;35.20;;;;;;2236877;62;20367;-65
2021/11/19 06:34:49;0.00;0.00;0.62;0.00;0.00;0.62;12.63;10.70;;;21.10;35.20;;;;;;2236252;62;20370;-66
2021/11/19 06:37:34;0.00;0.00;0.62;0.00;0.00;0.62;11.00;8.60;;;21.10;35.30;;;;;;2235887;62;20512;-62
2021/11/19 06:40:44;0.00;0.00;0.62;0.00;0.00;0.62;9.17;8.13;;;21.10;35.20;;;;;;2237514;62;20428;-62
2021/11/19 06:43:53;0.00;0.00;0.62;0.00;0.00;0.62;15.43;10.47;;;21.10;35.20;;;;;;2238235;62;20398;-63
2021/11/19 06:46:53;0.00;0.00;0.62;0.00;0.00;0.62;13.37;10.40;;;21.10;35.20;;;;;;2237274;62;20394;-63
2021/11/19 06:49:56;0.00;0.00;0.62;0.00;0.00;0.62;12.30;11.00;;;21.10;35.30;;;;;;2236596;62;20727;-67
2021/11/19 06:53:08;0.00;0.00;0.62;0.00;0.00;0.62;13.53;10.50;;;21.10;35.40;;;;;;2236696;62;20452;-62
2021/11/19 06:56:24;0.00;0.00;0.62;0.00;0.00;0.62;15.17;11.90;;;21.10;35.50;;;;;;2237274;62;20732;-67
2021/11/19 06:59:20;0.00;0.00;0.62;0.00;0.00;0.62;13.93;11.17;;;21.10;35.50;;;;;;2237973;62;20367;-64
2021/11/19 07:02:08;0.00;0.00;0.62;0.00;0.00;0.62;12.20;10.73;;;21.10;35.60;;;;;;2237270;62;20371;-63
2021/11/19 07:04:52;0.00;0.00;0.62;0.00;0.00;0.62;12.20;9.63;;;21.10;35.70;;;;;;2237357;62;20439;-63
2021/11/19 07:07:37;0.00;0.00;0.62;0.00;0.00;0.62;10.80;9.70;;;21.10;35.60;;;;;;2236941;62;20415;-65
2021/11/19 07:10:25;0.00;0.00;0.62;0.00;0.00;0.62;12.80;7.97;;;21.10;35.70;;;;;;2237625;62;20415;-64
2021/11/19 07:13:12;0.00;0.00;0.62;0.00;0.00;0.62;8.03;7.23;;;21.10;35.60;;;;;;2238071;62;20567;-64
2021/11/19 07:16:00;0.00;0.00;0.62;0.00;0.00;0.62;8.10;6.00;;;21.10;35.40;;;;;;2237171;62;20371;-63
2021/11/19 07:18:45;0.00;0.00;0.62;0.00;0.00;0.62;6.03;5.43;;;21.10;35.40;;;;;;2237568;62;20505;-65
2021/11/19 07:21:30;0.00;0.00;0.62;0.00;0.00;0.62;5.50;5.00;;;21.20;35.40;;;;;;2238722;62;20399;-67
2021/11/19 07:24:15;0.00;0.00;0.62;0.00;0.00;0.62;7.63;4.87;;;21.20;35.30;;;;;;2237937;62;20366;-66
2021/11/19 07:27:00;0.00;0.00;0.62;0.00;0.00;0.62;7.70;4.77;;;21.20;35.10;;;;;;2237846;62;20818;-64
2021/11/19 07:29:46;0.00;0.00;0.62;0.00;0.00;0.62;7.20;4.40;;;21.30;35.20;;;;;;2234724;62;20615;-72
2021/11/19 07:32:52;0.00;0.00;0.62;0.00;0.00;0.62;4.80;3.40;;;21.30;35.10;;;;;;2237500;62;20383;-71
2021/11/19 07:35:57;0.00;0.00;0.62;0.00;0.00;0.62;6.83;3.80;;;21.40;35.10;;;;;;2235739;62;20383;-65
2021/11/19 07:39:09;0.00;0.00;0.62;0.00;0.00;0.62;3.83;3.43;;;21.40;35.10;;;;;;2238259;62;20764;-68
2021/11/19 07:42:09;0.00;0.00;0.62;0.00;0.00;0.62;4.60;3.27;;;21.40;35.10;;;;;;2238047;62;20476;-69
2021/11/19 07:45:10;0.00;0.00;0.62;0.00;0.00;0.62;4.40;3.47;;;21.50;35.10;;;;;;2237473;62;20489;-66
2021/11/19 07:48:08;0.00;0.00;0.62;0.00;0.00;0.62;3.80;3.23;;;21.50;35.00;;;;;;2237095;62;20497;-66
2021/11/19 07:50:57;0.00;0.00;0.62;0.00;0.00;0.62;3.27;2.90;;;21.50;35.00;;;;;;2237878;62;20443;-63
2021/11/19 07:53:44;0.00;0.00;0.62;0.00;0.00;0.62;3.27;2.90;;;21.60;35.00;;;;;;2237877;62;20362;-63
2021/11/19 07:56:31;0.00;0.00;0.62;0.00;0.00;0.62;4.23;2.60;;;21.60;34.90;;;;;;2237188;62;20667;-65
2021/11/19 07:59:19;0.00;0.00;0.62;0.00;0.00;0.62;3.60;2.70;;;21.60;34.80;;;;;;2236227;62;20449;-65
2021/11/19 08:02:05;0.00;0.00;0.62;0.00;0.00;0.62;3.03;2.73;;;21.70;34.80;;;;;;2237825;62;20412;-65
2021/11/19 08:04:51;0.00;0.00;0.62;0.00;0.00;0.62;4.20;3.00;;;21.70;34.70;;;;;;2237859;62;20363;-64
2021/11/19 08:07:42;0.00;0.00;0.62;0.00;0.00;0.62;3.80;2.50;;;21.70;34.60;;;;;;2236790;62;20628;-65
2021/11/19 08:10:47;0.00;0.00;0.62;0.00;0.00;0.62;2.60;2.37;;;21.70;34.60;;;;;;2237969;62;20389;-63
2021/11/19 08:13:32;0.00;0.00;0.62;0.00;0.00;0.62;2.60;2.40;;;21.80;34.60;;;;;;2237357;62;20436;-64
2021/11/19 08:16:17;0.00;0.00;0.62;0.00;0.00;0.62;2.63;1.93;;;21.80;34.50;;;;;;2237753;62;20601;-65
2021/11/19 08:19:23;0.00;0.00;0.62;0.00;0.00;0.62;2.40;2.20;;;21.80;34.50;;;;;;2237489;62;20355;-65
2021/11/19 08:22:11;0.00;0.00;0.62;0.00;0.00;0.62;2.40;2.20;;;21.80;34.50;;;;;;2236881;62;20367;-65
2021/11/19 08:24:58;0.00;0.00;0.62;0.00;0.00;0.62;3.03;2.43;;;21.90;34.50;;;;;;2237896;62;20824;-64
2021/11/19 08:27:56;0.00;0.00;0.62;0.00;0.00;0.62;2.53;2.20;;;21.90;34.50;;;;;;2237884;62;20395;-65
2021/11/19 08:30:47;0.00;0.00;0.62;0.00;0.00;0.62;6.83;2.37;;;21.90;34.50;;;;;;2237421;62;20731;-64
2021/11/19 08:33:32;0.00;0.00;0.62;0.00;0.00;0.62;8.07;2.80;;;21.90;34.40;;;;;;2237712;62;20435;-64
2021/11/19 08:36:19;0.00;0.00;0.62;0.00;0.00;0.62;4.83;2.33;;;22.00;34.40;;;;;;2237205;62;20396;-63
2021/11/19 08:39:10;0.00;0.00;0.62;0.00;0.00;0.62;11.90;3.30;;;22.00;34.40;;;;;;2237940;62;20399;-63
2021/11/19 08:41:55;0.00;0.00;0.62;0.00;0.00;0.62;4.43;2.67;;;22.00;34.50;;;;;;2237943;62;20367;-69
2021/11/19 08:44:44;0.00;0.00;0.62;0.00;0.00;0.62;7.73;2.70;;;22.00;34.40;;;;;;2236760;62;20411;-63
2021/11/19 08:47:30;0.00;0.00;0.62;0.00;0.00;0.62;3.03;2.20;;;22.00;34.40;;;;;;2236777;62;20386;-63
2021/11/19 08:50:18;0.00;0.00;0.62;0.00;0.00;0.62;6.57;2.70;;;22.00;34.40;;;;;;2237615;62;20432;-63
2021/11/19 08:53:05;0.00;0.00;0.62;0.00;0.00;0.62;4.17;2.83;;;22.10;34.50;;;;;;2237739;62;20371;-62
2021/11/19 08:55:55;0.00;0.00;0.62;0.00;0.00;0.62;3.63;2.30;;;22.10;34.40;;;;;;2237408;62;20371;-63
2021/11/19 08:58:42;0.00;0.00;0.62;0.00;0.00;0.62;3.77;2.60;;;22.10;34.40;;;;;;2236713;62;20383;-65
2021/11/19 09:01:27;0.00;0.00;0.62;0.00;0.00;0.62;5.80;2.07;;;22.10;34.30;;;;;;2237831;62;20719;-65
2021/11/19 09:04:13;0.00;0.00;0.62;0.00;0.00;0.62;3.43;2.40;;;22.10;34.30;;;;;;2237272;62;20412;-65
2021/11/19 09:06:58;0.00;0.00;0.62;0.00;0.00;0.62;4.40;2.40;;;22.20;34.30;;;;;;2236374;62;20471;-67
2021/11/19 09:09:44;0.00;0.00;0.62;0.00;0.00;0.62;3.67;2.20;;;22.20;34.40;;;;;;2237256;62;20770;-62
2021/11/19 09:12:31;0.00;0.00;0.62;0.00;0.00;0.62;2.70;2.07;;;22.20;34.30;;;;;;2237532;62;20387;-62
2021/11/19 09:15:20;0.00;0.00;0.62;0.00;0.00;0.62;3.77;2.63;;;22.20;34.30;;;;;;2237544;62;20426;-62
2021/11/19 09:18:21;0.00;0.00;0.62;0.00;0.00;0.62;6.20;2.80;;;22.20;34.30;;;;;;2237181;62;20431;-62
2021/11/19 09:21:19;0.00;0.00;0.62;0.00;0.00;0.62;5.00;2.43;;;22.30;34.30;;;;;;2236780;62;20355;-61
2021/11/19 09:24:07;0.00;0.00;0.62;0.00;0.00;0.62;4.77;2.73;;;22.30;34.30;;;;;;2236896;62;20747;-62
2021/11/19 09:26:56;0.00;0.00;0.62;0.00;0.00;0.62;2.80;2.40;;;22.30;34.30;;;;;;2237285;62;20536;-60
2021/11/19 09:29:46;0.00;0.00;0.62;0.00;0.00;0.62;4.33;2.50;;;22.30;34.20;;;;;;2236875;62;20414;-61
2021/11/19 09:32:31;0.00;0.00;0.62;0.00;0.00;0.62;4.33;2.10;;;22.30;34.10;;;;;;2236757;62;20480;-63
2021/11/19 09:35:18;0.00;0.00;0.62;0.00;0.00;0.62;5.00;2.40;;;22.30;34.10;;;;;;2236728;62;20501;-61
2021/11/19 09:38:06;0.00;0.00;0.62;0.00;0.00;0.62;2.40;1.80;;;22.30;34.10;;;;;;2237608;62;20386;-63
2021/11/19 09:41:05;0.00;0.00;0.62;0.00;0.00;0.62;2.60;2.30;;;22.30;34.00;;;;;;2237012;62;20363;-61
2021/11/19 09:44:03;0.00;0.00;0.62;0.00;0.00;0.62;3.40;1.93;;;22.40;34.10;;;;;;2236610;62;20439;-64
2021/11/19 09:47:26;0.00;0.00;0.62;0.00;0.00;0.62;3.70;2.70;;;22.40;34.10;;;;;;2237178;62;20379;-64
2021/11/19 09:50:56;0.00;0.00;0.62;0.00;0.00;0.62;3.73;2.47;;;22.40;34.00;;;;;;2236839;62;20523;-64
2021/11/19 09:54:40;0.00;0.00;0.62;0.00;0.00;0.62;3.00;1.93;;;22.40;33.90;;;;;;2237340;62;20746;-63
2021/11/19 09:58:11;0.00;0.00;0.62;0.00;0.00;0.62;2.50;2.00;;;22.40;33.90;;;;;;2236675;62;20435;-64
2021/11/19 10:01:23;0.00;0.00;0.62;0.00;0.00;0.62;3.00;1.97;;;22.40;33.80;;;;;;2236889;62;20363;-63
2021/11/19 10:04:40;0.00;0.00;0.62;0.00;0.00;0.62;3.87;1.70;;;22.40;33.80;;;;;;2237423;62;20367;-63
2021/11/19 10:07:35;0.00;0.00;0.62;0.00;0.00;0.62;2.20;2.00;;;22.40;33.80;;;;;;2237204;62;20399;-63
2021/11/19 10:10:51;0.00;0.00;0.62;0.00;0.00;0.62;2.50;1.67;;;22.40;33.70;;;;;;2237314;62;20379;-63
2021/11/19 10:14:04;0.00;0.00;0.62;0.00;0.00;0.62;3.23;2.20;;;22.40;33.70;;;;;;2236621;62;20412;-63
2021/11/19 10:17:40;0.00;0.00;0.62;0.00;0.00;0.62;3.40;2.47;;;22.40;33.60;;;;;;2237712;62;20391;-63
2021/11/19 10:20:33;0.00;0.00;0.62;0.00;0.00;0.62;4.40;1.90;;;22.40;33.60;;;;;;2236330;62;20439;-63
2021/11/19 10:23:29;0.00;0.00;0.62;0.00;0.00;0.62;2.23;1.73;;;22.40;33.60;;;;;;2237770;62;20750;-63
2021/11/19 10:26:19;0.00;0.00;0.62;0.00;0.00;0.62;2.47;1.97;;;22.40;33.60;;;;;;2237801;62;20464;-63
2021/11/19 10:29:12;0.00;0.00;0.62;0.00;0.00;0.62;3.27;1.87;;;22.40;33.50;;;;;;2237088;62;20382;-63
2021/11/19 10:32:01;0.00;0.00;0.62;0.00;0.00;0.62;2.27;1.70;;;22.50;33.60;;;;;;2237871;62;20646;-63
2021/11/19 10:34:56;0.00;0.00;0.62;0.00;0.00;0.62;2.97;1.70;;;22.50;33.60;;;;;;2237067;62;20400;-64
2021/11/19 10:38:38;0.00;0.00;0.62;0.00;0.00;0.62;3.00;2.20;;;22.50;33.60;;;;;;2237828;62;20613;-63
2021/11/19 10:42:18;0.00;0.00;0.62;0.00;0.00;0.62;2.80;2.10;;;22.50;33.50;;;;;;2228206;62;20754;-63
2021/11/19 10:46:12;0.00;0.00;0.62;0.00;0.00;0.62;2.73;1.80;;;22.50;33.40;;;;;;2236149;62;20627;-61
2021/11/19 10:49:39;0.00;0.00;0.62;0.00;0.00;0.62;3.27;2.27;;;22.50;33.40;;;;;;2228805;62;20389;-61
2021/11/19 10:53:10;0.00;0.00;0.62;0.00;0.00;0.62;2.47;1.93;;;22.50;33.40;;;;;;2225599;62;20635;-63
2021/11/19 10:56:33;0.00;0.00;0.62;0.00;0.00;0.62;2.13;1.57;;;22.50;33.40;;;;;;2225395;62;20365;-63
2021/11/19 10:59:36;0.00;0.00;0.62;0.00;0.00;0.62;2.40;1.90;;;22.50;33.40;;;;;;2238039;62;20412;-63
2021/11/19 11:02:36;0.00;0.00;0.62;0.00;0.00;0.62;2.47;1.97;;;22.50;33.30;;;;;;2237886;62;20367;-63
2021/11/19 11:05:32;0.00;0.00;0.62;0.00;0.00;0.62;2.53;2.10;;;22.50;33.30;;;;;;2237004;62;20364;-63
2021/11/19 11:08:23;0.00;0.00;0.62;0.00;0.00;0.62;1.83;1.53;;;22.50;33.20;;;;;;2237523;62;20412;-63
2021/11/19 11:11:12;0.00;0.00;0.62;0.00;0.00;0.62;2.17;1.40;;;22.60;33.30;;;;;;2237466;62;20386;-63
2021/11/19 11:14:02;0.00;0.00;0.62;0.00;0.00;0.62;2.50;1.80;;;22.50;33.20;;;;;;2238077;62;20400;-63
2021/11/19 11:16:50;0.00;0.00;0.62;0.00;0.00;0.62;3.70;2.30;;;22.50;33.20;;;;;;2237680;62;20428;-63
2021/11/19 11:19:43;0.00;0.00;0.62;0.00;0.00;0.62;1.97;1.73;;;22.50;33.10;;;;;;2236847;62;20475;-63